Terminal Aerodrome Forecast
Issued by NWS St Louis, MO

Home | Current Version | Previous Version | Text Only | Print | Product List | Glossary On
Versions: 1 2 3 4 5 6 7 8 9 10 11 12 13 14 15 16 17 18 19 20
190
FTUS43 KLSX 021136
TAFCOU
TAF
KCOU 021136Z 0212/0312 35010KT P6SM OVC015
      TEMPO 0212/0215 -SHRA
     FM021500 32004KT P6SM VCSH OVC025
     FM022100 33006KT P6SM VCSH OVC035
     FM030300 VRB03KT P6SM SCT250=

USA.gov is the U.S. government's official web portal to all federal, state and local government web resources and services.